sensor_id;sensor_type;location;lat;lon;timestamp;pressure;altitude;pressure_sealevel;temperature;humidity
72428;BME280;60419;48.880;18.036;2023-03-02T00:01:57;99688.03;;;1.98;58.23
72428;BME280;60419;48.880;18.036;2023-03-02T00:04:49;99684.53;;;2.21;57.65
72428;BME280;60419;48.880;18.036;2023-03-02T00:07:36;99653.38;;;1.98;57.73
72428;BME280;60419;48.880;18.036;2023-03-02T00:10:22;99690.13;;;2.48;56.94
72428;BME280;60419;48.880;18.036;2023-03-02T00:13:07;99681.13;;;2.25;57.54
72428;BME280;60419;48.880;18.036;2023-03-02T00:15:53;99688.94;;;2.56;56.97
72428;BME280;60419;48.880;18.036;2023-03-02T00:18:38;99694.09;;;2.74;56.40
72428;BME280;60419;48.880;18.036;2023-03-02T00:21:23;99692.59;;;2.78;55.89
72428;BME280;60419;48.880;18.036;2023-03-02T00:24:08;99681.38;;;2.24;57.25
72428;BME280;60419;48.880;18.036;2023-03-02T00:26:54;99687.25;;;2.49;57.20
72428;BME280;60419;48.880;18.036;2023-03-02T00:29:39;99682.78;;;2.26;57.90
72428;BME280;60419;48.880;18.036;2023-03-02T00:32:26;99684.66;;;1.91;58.89
72428;BME280;60419;48.880;18.036;2023-03-02T00:35:11;99661.06;;;1.59;59.43
72428;BME280;60419;48.880;18.036;2023-03-02T00:37:57;99681.66;;;1.52;60.25
72428;BME280;60419;48.880;18.036;2023-03-02T00:40:46;99689.28;;;1.60;60.46
72428;BME280;60419;48.880;18.036;2023-03-02T00:43:33;99681.78;;;1.69;60.21
72428;BME280;60419;48.880;18.036;2023-03-02T00:46:20;99662.41;;;1.50;60.55
72428;BME280;60419;48.880;18.036;2023-03-02T00:49:06;99678.41;;;1.73;60.06
72428;BME280;60419;48.880;18.036;2023-03-02T00:51:51;99660.22;;;1.47;60.45
72428;BME280;60419;48.880;18.036;2023-03-02T00:54:36;99673.88;;;1.38;61.58
72428;BME280;60419;48.880;18.036;2023-03-02T00:57:22;99669.47;;;1.44;61.47
72428;BME280;60419;48.880;18.036;2023-03-02T01:00:08;99674.94;;;1.73;60.62
72428;BME280;60419;48.880;18.036;2023-03-02T01:02:54;99667.88;;;1.43;60.74
72428;BME280;60419;48.880;18.036;2023-03-02T01:05:40;99646.31;;;0.79;62.34
72428;BME280;60419;48.880;18.036;2023-03-02T01:08:25;99665.06;;;0.84;63.18
72428;BME280;60419;48.880;18.036;2023-03-02T01:11:13;99656.38;;;0.77;63.43
72428;BME280;60419;48.880;18.036;2023-03-02T01:13:58;99663.53;;;0.77;63.89
72428;BME280;60419;48.880;18.036;2023-03-02T01:16:44;99626.59;;;0.99;62.08
72428;BME280;60419;48.880;18.036;2023-03-02T01:19:29;99646.75;;;1.18;62.30
72428;BME280;60419;48.880;18.036;2023-03-02T01:22:15;99650.09;;;1.13;62.16
72428;BME280;60419;48.880;18.036;2023-03-02T01:25:00;99646.16;;;1.04;62.33
72428;BME280;60419;48.880;18.036;2023-03-02T01:27:46;99616.69;;;1.17;61.46
72428;BME280;60419;48.880;18.036;2023-03-02T01:30:31;99639.31;;;0.96;62.88
72428;BME280;60419;48.880;18.036;2023-03-02T01:33:17;99632.75;;;1.11;62.23
72428;BME280;60419;48.880;18.036;2023-03-02T01:36:02;99625.22;;;0.96;62.14
72428;BME280;60419;48.880;18.036;2023-03-02T01:38:49;99628.28;;;0.81;63.31
72428;BME280;60419;48.880;18.036;2023-03-02T01:41:34;99618.31;;;0.65;63.85
72428;BME280;60419;48.880;18.036;2023-03-02T01:47:41;99610.84;;;0.97;62.71
72428;BME280;60419;48.880;18.036;2023-03-02T01:50:27;99611.00;;;0.60;64.17
72428;BME280;60419;48.880;18.036;2023-03-02T01:53:13;99610.28;;;0.95;63.20
72428;BME280;60419;48.880;18.036;2023-03-02T01:56:01;99606.22;;;0.50;63.78
72428;BME280;60419;48.880;18.036;2023-03-02T01:58:50;99608.56;;;0.59;64.39
72428;BME280;60419;48.880;18.036;2023-03-02T02:01:39;99612.97;;;0.65;64.04
72428;BME280;60419;48.880;18.036;2023-03-02T02:04:27;99603.88;;;0.42;63.85
72428;BME280;60419;48.880;18.036;2023-03-02T02:07:13;99598.97;;;0.58;64.50
72428;BME280;60419;48.880;18.036;2023-03-02T02:09:59;99603.28;;;0.40;65.31
72428;BME280;60419;48.880;18.036;2023-03-02T02:12:44;99604.81;;;0.78;63.42
72428;BME280;60419;48.880;18.036;2023-03-02T02:15:30;99604.16;;;0.94;63.03
72428;BME280;60419;48.880;18.036;2023-03-02T02:18:15;99601.78;;;0.74;63.13
72428;BME280;60419;48.880;18.036;2023-03-02T02:21:00;99572.84;;;0.55;63.48
72428;BME280;60419;48.880;18.036;2023-03-02T02:26:35;99594.09;;;0.55;64.51
72428;BME280;60419;48.880;18.036;2023-03-02T02:29:51;99604.53;;;0.07;65.28
72428;BME280;60419;48.880;18.036;2023-03-02T02:32:38;99593.75;;;0.02;65.83
72428;BME280;60419;48.880;18.036;2023-03-02T02:35:27;99600.38;;;-0.07;66.70
72428;BME280;60419;48.880;18.036;2023-03-02T02:38:17;99590.97;;;-0.40;66.98
72428;BME280;60419;48.880;18.036;2023-03-02T02:41:05;99599.81;;;0.09;66.14
72428;BME280;60419;48.880;18.036;2023-03-02T02:43:52;99599.78;;;-0.09;66.10
72428;BME280;60419;48.880;18.036;2023-03-02T02:46:39;99571.44;;;-0.27;66.34
72428;BME280;60419;48.880;18.036;2023-03-02T02:49:34;99592.53;;;0.17;65.84
72428;BME280;60419;48.880;18.036;2023-03-02T02:52:22;99602.34;;;0.35;64.43
72428;BME280;60419;48.880;18.036;2023-03-02T02:55:12;99595.97;;;0.54;63.85
72428;BME280;60419;48.880;18.036;2023-03-02T02:58:01;99590.97;;;0.27;64.32
72428;BME280;60419;48.880;18.036;2023-03-02T03:00:54;99595.69;;;0.44;63.82
72428;BME280;60419;48.880;18.036;2023-03-02T03:03:43;99593.03;;;0.86;62.88
72428;BME280;60419;48.880;18.036;2023-03-02T03:06:32;99594.31;;;0.83;63.22
72428;BME280;60419;48.880;18.036;2023-03-02T03:09:27;99595.53;;;0.69;62.80
72428;BME280;60419;48.880;18.036;2023-03-02T03:12:19;99589.88;;;0.17;64.68
72428;BME280;60419;48.880;18.036;2023-03-02T03:15:06;99569.09;;;0.14;64.97
72428;BME280;60419;48.880;18.036;2023-03-02T03:17:56;99588.31;;;0.27;65.60
72428;BME280;60419;48.880;18.036;2023-03-02T03:20:42;99586.53;;;0.40;64.12
72428;BME280;60419;48.880;18.036;2023-03-02T03:23:29;99588.81;;;-0.13;66.73
72428;BME280;60419;48.880;18.036;2023-03-02T03:26:15;99586.75;;;-0.29;67.18
72428;BME280;60419;48.880;18.036;2023-03-02T03:29:01;99585.50;;;-0.26;66.39
72428;BME280;60419;48.880;18.036;2023-03-02T03:31:47;99583.22;;;-0.23;66.42
72428;BME280;60419;48.880;18.036;2023-03-02T03:34:33;99590.88;;;-0.33;67.04
72428;BME280;60419;48.880;18.036;2023-03-02T03:37:24;99579.00;;;-0.12;66.74
72428;BME280;60419;48.880;18.036;2023-03-02T03:40:10;99595.22;;;-0.02;66.00
72428;BME280;60419;48.880;18.036;2023-03-02T03:42:56;99591.25;;;0.07;66.09
72428;BME280;60419;48.880;18.036;2023-03-02T03:45:41;99580.94;;;0.29;64.39
72428;BME280;60419;48.880;18.036;2023-03-02T03:48:26;99594.47;;;-0.09;65.78
72428;BME280;60419;48.880;18.036;2023-03-02T03:51:12;99586.81;;;-0.36;66.54
72428;BME280;60419;48.880;18.036;2023-03-02T03:53:57;99590.38;;;-0.23;66.29
72428;BME280;60419;48.880;18.036;2023-03-02T03:56:47;99587.34;;;-0.27;66.11
72428;BME280;60419;48.880;18.036;2023-03-02T03:59:33;99594.72;;;-0.29;66.93
72428;BME280;60419;48.880;18.036;2023-03-02T04:02:19;99592.94;;;-0.17;65.72
72428;BME280;60419;48.880;18.036;2023-03-02T04:05:04;99593.06;;;-0.92;68.62
72428;BME280;60419;48.880;18.036;2023-03-02T04:07:52;99580.94;;;-0.81;68.26
72428;BME280;60419;48.880;18.036;2023-03-02T04:10:38;99590.63;;;-0.93;68.70
72428;BME280;60419;48.880;18.036;2023-03-02T04:13:23;99593.56;;;-1.02;69.10
72428;BME280;60419;48.880;18.036;2023-03-02T04:16:10;99586.94;;;-0.49;67.88
72428;BME280;60419;48.880;18.036;2023-03-02T04:18:56;99579.41;;;-0.70;68.94
72428;BME280;60419;48.880;18.036;2023-03-02T04:21:43;99576.16;;;-0.72;69.15
72428;BME280;60419;48.880;18.036;2023-03-02T04:24:30;99588.44;;;-0.53;69.11
72428;BME280;60419;48.880;18.036;2023-03-02T04:27:16;99586.66;;;-0.22;67.71
72428;BME280;60419;48.880;18.036;2023-03-02T04:30:02;99580.25;;;0.04;66.73
72428;BME280;60419;48.880;18.036;2023-03-02T04:32:48;99559.13;;;-0.83;67.67
72428;BME280;60419;48.880;18.036;2023-03-02T04:35:33;99584.09;;;-0.29;67.53
72428;BME280;60419;48.880;18.036;2023-03-02T04:38:19;99573.53;;;-0.17;66.38
72428;BME280;60419;48.880;18.036;2023-03-02T04:41:05;99575.84;;;-0.21;66.37
72428;BME280;60419;48.880;18.036;2023-03-02T04:43:50;99575.09;;;-0.28;66.44
72428;BME280;60419;48.880;18.036;2023-03-02T04:46:36;99573.53;;;-0.54;67.02
72428;BME280;60419;48.880;18.036;2023-03-02T04:49:22;99577.00;;;-0.35;66.14
72428;BME280;60419;48.880;18.036;2023-03-02T04:52:07;99575.09;;;-0.09;66.04
72428;BME280;60419;48.880;18.036;2023-03-02T04:54:52;99579.28;;;-0.20;65.62
72428;BME280;60419;48.880;18.036;2023-03-02T04:57:38;99580.16;;;-0.63;66.58
72428;BME280;60419;48.880;18.036;2023-03-02T05:00:23;99580.78;;;-0.24;66.46
72428;BME280;60419;48.880;18.036;2023-03-02T05:03:09;99580.91;;;-0.38;66.30
72428;BME280;60419;48.880;18.036;2023-03-02T05:05:54;99576.94;;;-0.10;65.03
72428;BME280;60419;48.880;18.036;2023-03-02T05:08:42;99579.06;;;0.18;65.06
72428;BME280;60419;48.880;18.036;2023-03-02T05:11:27;99570.13;;;0.13;64.43
72428;BME280;60419;48.880;18.036;2023-03-02T05:14:12;99578.78;;;-0.10;65.07
72428;BME280;60419;48.880;18.036;2023-03-02T05:16:58;99562.47;;;0.04;64.80
72428;BME280;60419;48.880;18.036;2023-03-02T05:19:43;99579.38;;;0.40;63.87
72428;BME280;60419;48.880;18.036;2023-03-02T05:22:28;99582.41;;;0.44;63.12
72428;BME280;60419;48.880;18.036;2023-03-02T05:25:14;99576.88;;;0.57;62.56
72428;BME280;60419;48.880;18.036;2023-03-02T05:28:00;99587.72;;;0.44;63.39
72428;BME280;60419;48.880;18.036;2023-03-02T05:30:46;99579.22;;;0.35;63.42
72428;BME280;60419;48.880;18.036;2023-03-02T05:33:32;99581.66;;;0.37;63.77
72428;BME280;60419;48.880;18.036;2023-03-02T05:36:18;99580.69;;;0.49;63.39
72428;BME280;60419;48.880;18.036;2023-03-02T05:39:04;99573.25;;;0.40;63.34
72428;BME280;60419;48.880;18.036;2023-03-02T05:41:50;99583.50;;;0.06;64.66
72428;BME280;60419;48.880;18.036;2023-03-02T05:44:35;99574.06;;;0.10;64.67
72428;BME280;60419;48.880;18.036;2023-03-02T05:47:20;99575.16;;;0.02;64.56
72428;BME280;60419;48.880;18.036;2023-03-02T05:50:06;99585.91;;;0.26;63.86
72428;BME280;60419;48.880;18.036;2023-03-02T05:52:52;99563.84;;;0.25;63.64
72428;BME280;60419;48.880;18.036;2023-03-02T05:55:37;99588.91;;;0.29;63.75
72428;BME280;60419;48.880;18.036;2023-03-02T05:58:22;99588.31;;;0.27;63.81
72428;BME280;60419;48.880;18.036;2023-03-02T06:01:09;99583.28;;;0.38;63.17
72428;BME280;60419;48.880;18.036;2023-03-02T06:03:55;99583.69;;;0.23;63.93
72428;BME280;60419;48.880;18.036;2023-03-02T06:06:40;99590.22;;;-0.10;65.36
72428;BME280;60419;48.880;18.036;2023-03-02T06:09:25;99593.28;;;0.24;64.64
72428;BME280;60419;48.880;18.036;2023-03-02T06:12:11;99589.88;;;0.17;64.52
72428;BME280;60419;48.880;18.036;2023-03-02T06:14:56;99591.25;;;0.38;63.90
72428;BME280;60419;48.880;18.036;2023-03-02T06:17:43;99595.31;;;0.40;64.05
72428;BME280;60419;48.880;18.036;2023-03-02T06:20:28;99609.28;;;0.36;63.92
72428;BME280;60419;48.880;18.036;2023-03-02T06:23:13;99605.34;;;0.38;63.57
72428;BME280;60419;48.880;18.036;2023-03-02T06:25:59;99603.78;;;0.49;64.30
72428;BME280;60419;48.880;18.036;2023-03-02T06:28:44;99594.47;;;0.28;64.31
72428;BME280;60419;48.880;18.036;2023-03-02T06:31:30;99612.41;;;0.63;63.25
72428;BME280;60419;48.880;18.036;2023-03-02T06:34:16;99598.03;;;0.52;63.95
72428;BME280;60419;48.880;18.036;2023-03-02T06:37:01;99616.69;;;0.15;65.81
72428;BME280;60419;48.880;18.036;2023-03-02T06:39:46;99615.06;;;0.63;63.88
72428;BME280;60419;48.880;18.036;2023-03-02T06:42:32;99612.72;;;0.55;64.23
72428;BME280;60419;48.880;18.036;2023-03-02T06:45:17;99618.59;;;0.87;63.83
72428;BME280;60419;48.880;18.036;2023-03-02T06:48:02;99614.09;;;0.99;63.66
72428;BME280;60419;48.880;18.036;2023-03-02T06:50:48;99611.91;;;1.08;63.01
72428;BME280;60419;48.880;18.036;2023-03-02T06:53:34;99608.69;;;1.17;62.94
72428;BME280;60419;48.880;18.036;2023-03-02T06:56:19;99614.66;;;0.78;63.91
72428;BME280;60419;48.880;18.036;2023-03-02T06:59:04;99619.84;;;0.84;65.03
72428;BME280;60419;48.880;18.036;2023-03-02T07:01:50;99611.16;;;1.19;64.00
72428;BME280;60419;48.880;18.036;2023-03-02T07:04:35;99607.41;;;1.08;64.17
72428;BME280;60419;48.880;18.036;2023-03-02T07:07:21;99596.47;;;1.40;62.77
72428;BME280;60419;48.880;18.036;2023-03-02T07:10:07;99607.28;;;1.85;61.32
72428;BME280;60419;48.880;18.036;2023-03-02T07:12:53;99604.31;;;1.58;62.06
72428;BME280;60419;48.880;18.036;2023-03-02T07:15:38;99615.31;;;1.38;62.87
72428;BME280;60419;48.880;18.036;2023-03-02T07:18:24;99610.22;;;1.72;62.16
72428;BME280;60419;48.880;18.036;2023-03-02T07:21:09;99617.44;;;2.12;61.14
72428;BME280;60419;48.880;18.036;2023-03-02T07:23:54;99610.19;;;1.84;58.89
72428;BME280;60419;48.880;18.036;2023-03-02T07:26:40;99607.06;;;2.85;72.56
72428;BME280;60419;48.880;18.036;2023-03-02T07:29:25;99608.06;;;3.85;63.44
72428;BME280;60419;48.880;18.036;2023-03-02T07:32:11;99613.19;;;4.36;55.74
72428;BME280;60419;48.880;18.036;2023-03-02T07:34:56;99609.34;;;4.04;55.14
72428;BME280;60419;48.880;18.036;2023-03-02T07:37:42;99607.34;;;3.95;55.83
72428;BME280;60419;48.880;18.036;2023-03-02T07:40:28;99600.66;;;4.14;54.47
72428;BME280;60419;48.880;18.036;2023-03-02T07:43:13;99610.47;;;4.31;54.69
72428;BME280;60419;48.880;18.036;2023-03-02T07:45:59;99605.91;;;3.87;52.03
72428;BME280;60419;48.880;18.036;2023-03-02T07:48:44;99604.06;;;4.32;51.52
72428;BME280;60419;48.880;18.036;2023-03-02T07:51:29;99609.94;;;4.56;50.46
72428;BME280;60419;48.880;18.036;2023-03-02T07:54:15;99606.66;;;4.48;51.15
72428;BME280;60419;48.880;18.036;2023-03-02T07:57:00;99611.72;;;4.45;51.02
72428;BME280;60419;48.880;18.036;2023-03-02T07:59:45;99608.03;;;3.46;52.03
72428;BME280;60419;48.880;18.036;2023-03-02T08:02:30;99612.53;;;3.63;51.86
72428;BME280;60419;48.880;18.036;2023-03-02T08:05:17;99614.28;;;3.91;52.16
72428;BME280;60419;48.880;18.036;2023-03-02T08:08:03;99616.41;;;3.72;50.70
72428;BME280;60419;48.880;18.036;2023-03-02T08:10:48;99608.28;;;3.62;51.38
72428;BME280;60419;48.880;18.036;2023-03-02T08:13:33;99611.94;;;3.38;52.10
72428;BME280;60419;48.880;18.036;2023-03-02T08:16:19;99613.88;;;3.26;52.28
72428;BME280;60419;48.880;18.036;2023-03-02T08:19:04;99614.34;;;2.89;52.46
72428;BME280;60419;48.880;18.036;2023-03-02T08:21:49;99602.38;;;3.26;51.94
72428;BME280;60419;48.880;18.036;2023-03-02T08:24:36;99606.81;;;3.93;50.63
72428;BME280;60419;48.880;18.036;2023-03-02T08:27:21;99611.38;;;3.75;50.28
72428;BME280;60419;48.880;18.036;2023-03-02T08:30:07;99599.59;;;4.15;49.10
72428;BME280;60419;48.880;18.036;2023-03-02T08:32:53;99594.88;;;4.49;48.33
72428;BME280;60419;48.880;18.036;2023-03-02T08:35:38;99592.53;;;4.53;47.10
72428;BME280;60419;48.880;18.036;2023-03-02T08:38:24;99598.59;;;3.77;49.10
72428;BME280;60419;48.880;18.036;2023-03-02T08:41:13;99590.94;;;3.47;49.11
72428;BME280;60419;48.880;18.036;2023-03-02T08:43:59;99588.13;;;3.54;48.85
72428;BME280;60419;48.880;18.036;2023-03-02T08:46:44;99580.53;;;4.34;47.98
72428;BME280;60419;48.880;18.036;2023-03-02T08:49:30;99580.31;;;4.13;47.55
72428;BME280;60419;48.880;18.036;2023-03-02T08:52:15;99563.69;;;5.20;48.84
72428;BME280;60419;48.880;18.036;2023-03-02T08:55:01;99582.03;;;5.01;46.32
72428;BME280;60419;48.880;18.036;2023-03-02T08:57:46;99580.31;;;5.22;45.66
72428;BME280;60419;48.880;18.036;2023-03-02T09:00:32;99572.72;;;4.54;47.01
72428;BME280;60419;48.880;18.036;2023-03-02T09:03:18;99559.31;;;5.08;45.80
72428;BME280;60419;48.880;18.036;2023-03-02T09:06:03;99562.56;;;5.53;45.38
72428;BME280;60419;48.880;18.036;2023-03-02T09:08:49;99562.78;;;3.78;48.94
72428;BME280;60419;48.880;18.036;2023-03-02T09:11:34;99559.00;;;3.96;49.24
72428;BME280;60419;48.880;18.036;2023-03-02T09:14:19;99552.66;;;4.84;47.22
72428;BME280;60419;48.880;18.036;2023-03-02T09:17:06;99549.44;;;5.14;45.35
72428;BME280;60419;48.880;18.036;2023-03-02T09:19:52;99538.91;;;5.92;44.89
72428;BME280;60419;48.880;18.036;2023-03-02T09:22:37;99531.97;;;5.49;44.31
72428;BME280;60419;48.880;18.036;2023-03-02T09:25:22;99543.56;;;5.17;45.35
72428;BME280;60419;48.880;18.036;2023-03-02T09:28:08;99512.09;;;5.34;45.17
72428;BME280;60419;48.880;18.036;2023-03-02T09:30:56;99529.78;;;5.93;44.37
72428;BME280;60419;48.880;18.036;2023-03-02T09:33:42;99534.69;;;6.22;44.13
72428;BME280;60419;48.880;18.036;2023-03-02T09:36:27;99539.06;;;6.74;43.54
72428;BME280;60419;48.880;18.036;2023-03-02T09:39:12;99525.19;;;5.84;44.74
72428;BME280;60419;48.880;18.036;2023-03-02T09:42:25;99532.50;;;6.04;44.46
72428;BME280;60419;48.880;18.036;2023-03-02T09:45:38;99532.91;;;5.75;45.77
72428;BME280;60419;48.880;18.036;2023-03-02T09:48:52;99528.75;;;6.05;45.39
72428;BME280;60419;48.880;18.036;2023-03-02T09:55:25;99522.16;;;6.94;43.15
72428;BME280;60419;48.880;18.036;2023-03-02T09:58:16;99522.38;;;7.49;40.96
72428;BME280;60419;48.880;18.036;2023-03-02T10:01:08;99513.53;;;6.26;42.21
72428;BME280;60419;48.880;18.036;2023-03-02T10:04:10;99518.13;;;6.40;42.22
72428;BME280;60419;48.880;18.036;2023-03-02T10:07:11;99505.50;;;6.92;41.61
72428;BME280;60419;48.880;18.036;2023-03-02T10:13:45;99507.94;;;6.83;41.75
72428;BME280;60419;48.880;18.036;2023-03-02T10:17:22;99501.22;;;6.86;42.67
72428;BME280;60419;48.880;18.036;2023-03-02T10:19:55;99503.00;;;7.37;40.77
72428;BME280;60419;48.880;18.036;2023-03-02T10:22:47;99502.88;;;7.88;40.35
72428;BME280;60419;48.880;18.036;2023-03-02T10:25:42;99497.66;;;8.07;39.09
72428;BME280;60419;48.880;18.036;2023-03-02T10:28:37;99486.38;;;8.49;39.14
72428;BME280;60419;48.880;18.036;2023-03-02T10:31:28;99488.22;;;8.88;39.03
72428;BME280;60419;48.880;18.036;2023-03-02T10:34:15;99491.53;;;8.75;38.34
72428;BME280;60419;48.880;18.036;2023-03-02T10:37:00;99478.78;;;9.15;38.98
72428;BME280;60419;48.880;18.036;2023-03-02T10:39:47;99479.66;;;8.81;39.41
72428;BME280;60419;48.880;18.036;2023-03-02T10:42:35;99474.78;;;8.83;38.69
72428;BME280;60419;48.880;18.036;2023-03-02T10:45:28;99468.06;;;9.10;38.94
72428;BME280;60419;48.880;18.036;2023-03-02T10:48:14;99454.56;;;9.39;38.59
72428;BME280;60419;48.880;18.036;2023-03-02T10:51:00;99458.44;;;9.94;38.13
72428;BME280;60419;48.880;18.036;2023-03-02T10:53:45;99446.25;;;9.78;37.69
72428;BME280;60419;48.880;18.036;2023-03-02T10:56:32;99452.31;;;10.08;38.24
72428;BME280;60419;48.880;18.036;2023-03-02T11:02:20;99444.59;;;10.20;37.25
72428;BME280;60419;48.880;18.036;2023-03-02T11:08:10;99438.53;;;10.28;37.16
72428;BME280;60419;48.880;18.036;2023-03-02T11:11:02;99442.09;;;10.43;36.94
72428;BME280;60419;48.880;18.036;2023-03-02T11:13:48;99430.53;;;10.56;37.01
72428;BME280;60419;48.880;18.036;2023-03-02T11:16:33;99426.81;;;10.00;38.33
72428;BME280;60419;48.880;18.036;2023-03-02T11:19:30;99419.03;;;10.31;38.15
72428;BME280;60419;48.880;18.036;2023-03-02T11:25:38;99408.63;;;10.57;38.83
72428;BME280;60419;48.880;18.036;2023-03-02T11:28:43;99414.25;;;11.08;38.49
72428;BME280;60419;48.880;18.036;2023-03-02T11:31:57;99409.44;;;11.04;38.00
72428;BME280;60419;48.880;18.036;2023-03-02T11:34:50;99408.81;;;10.47;40.80
72428;BME280;60419;48.880;18.036;2023-03-02T11:37:49;99399.34;;;10.64;39.60
72428;BME280;60419;48.880;18.036;2023-03-02T11:40:41;99398.78;;;10.15;40.27
72428;BME280;60419;48.880;18.036;2023-03-02T11:43:29;99395.72;;;10.22;40.02
72428;BME280;60419;48.880;18.036;2023-03-02T11:46:22;99397.34;;;10.36;39.86
72428;BME280;60419;48.880;18.036;2023-03-02T11:49:15;99389.16;;;10.74;39.61
72428;BME280;60419;48.880;18.036;2023-03-02T11:52:03;99391.00;;;10.60;39.71
72428;BME280;60419;48.880;18.036;2023-03-02T11:55:13;99377.72;;;11.10;38.62
72428;BME280;60419;48.880;18.036;2023-03-02T11:58:00;99370.22;;;11.71;37.90
72428;BME280;60419;48.880;18.036;2023-03-02T12:00:47;99369.94;;;11.95;37.55
72428;BME280;60419;48.880;18.036;2023-03-02T12:09:23;99361.06;;;11.44;37.74
72428;BME280;60419;48.880;18.036;2023-03-02T12:15:26;99350.78;;;11.05;38.42
72428;BME280;60419;48.880;18.036;2023-03-02T12:23:56;99342.19;;;11.89;37.28
72428;BME280;60419;48.880;18.036;2023-03-02T12:26:42;99333.81;;;12.00;36.84
72428;BME280;60419;48.880;18.036;2023-03-02T12:32:45;99326.50;;;12.76;35.50
72428;BME280;60419;48.880;18.036;2023-03-02T12:35:43;99332.41;;;12.02;36.50
72428;BME280;60419;48.880;18.036;2023-03-02T12:38:31;99325.16;;;12.11;35.78
72428;BME280;60419;48.880;18.036;2023-03-02T12:41:32;99329.81;;;11.97;35.36
72428;BME280;60419;48.880;18.036;2023-03-02T12:47:19;99318.53;;;12.49;34.12
72428;BME280;60419;48.880;18.036;2023-03-02T12:50:18;99306.22;;;12.74;33.92
72428;BME280;60419;48.880;18.036;2023-03-02T12:53:12;99302.41;;;12.75;33.64
72428;BME280;60419;48.880;18.036;2023-03-02T12:55:59;99303.44;;;12.56;34.93
72428;BME280;60419;48.880;18.036;2023-03-02T12:58:48;99285.78;;;12.68;33.12
72428;BME280;60419;48.880;18.036;2023-03-02T13:01:34;99294.06;;;12.63;32.38
72428;BME280;60419;48.880;18.036;2023-03-02T13:04:21;99289.72;;;13.01;31.42
72428;BME280;60419;48.880;18.036;2023-03-02T13:07:15;99295.84;;;13.51;31.14
72428;BME280;60419;48.880;18.036;2023-03-02T13:10:07;99281.91;;;13.09;31.84
72428;BME280;60419;48.880;18.036;2023-03-02T13:12:53;99286.69;;;13.03;32.47
72428;BME280;60419;48.880;18.036;2023-03-02T13:18:36;99282.88;;;13.13;32.22
72428;BME280;60419;48.880;18.036;2023-03-02T13:21:29;99273.03;;;13.78;31.17
72428;BME280;60419;48.880;18.036;2023-03-02T13:24:34;99273.16;;;13.12;30.90
72428;BME280;60419;48.880;18.036;2023-03-02T13:27:28;99266.47;;;13.35;30.94
72428;BME280;60419;48.880;18.036;2023-03-02T13:30:30;99248.63;;;12.68;31.81
72428;BME280;60419;48.880;18.036;2023-03-02T13:33:21;99258.13;;;12.97;31.31
72428;BME280;60419;48.880;18.036;2023-03-02T13:36:07;99256.47;;;13.53;31.30
72428;BME280;60419;48.880;18.036;2023-03-02T13:38:55;99243.13;;;14.04;30.40
72428;BME280;60419;48.880;18.036;2023-03-02T13:41:52;99241.50;;;14.12;30.03
72428;BME280;60419;48.880;18.036;2023-03-02T13:44:37;99242.44;;;14.24;30.45
72428;BME280;60419;48.880;18.036;2023-03-02T13:47:23;99237.63;;;14.30;29.54
72428;BME280;60419;48.880;18.036;2023-03-02T13:50:16;99236.47;;;13.75;30.28
72428;BME280;60419;48.880;18.036;2023-03-02T13:53:02;99227.72;;;13.26;30.81
72428;BME280;60419;48.880;18.036;2023-03-02T13:55:51;99225.47;;;13.72;30.59
72428;BME280;60419;48.880;18.036;2023-03-02T13:58:38;99221.53;;;14.16;30.16
72428;BME280;60419;48.880;18.036;2023-03-02T14:01:24;99221.44;;;13.95;30.26
72428;BME280;60419;48.880;18.036;2023-03-02T14:04:14;99214.91;;;14.35;30.28
72428;BME280;60419;48.880;18.036;2023-03-02T14:07:01;99212.22;;;14.26;30.27
72428;BME280;60419;48.880;18.036;2023-03-02T14:09:46;99201.31;;;14.43;30.70
72428;BME280;60419;48.880;18.036;2023-03-02T14:12:32;99204.19;;;14.68;30.15
72428;BME280;60419;48.880;18.036;2023-03-02T14:15:18;99198.34;;;14.19;30.83
72428;BME280;60419;48.880;18.036;2023-03-02T14:18:30;99204.75;;;14.23;31.94
72428;BME280;60419;48.880;18.036;2023-03-02T14:21:16;99193.28;;;14.47;30.36
72428;BME280;60419;48.880;18.036;2023-03-02T14:24:02;99195.75;;;14.69;30.01
72428;BME280;60419;48.880;18.036;2023-03-02T14:26:47;99183.63;;;14.28;30.24
72428;BME280;60419;48.880;18.036;2023-03-02T14:29:33;99187.66;;;14.52;30.06
72428;BME280;60419;48.880;18.036;2023-03-02T14:32:18;99188.47;;;14.82;29.72
72428;BME280;60419;48.880;18.036;2023-03-02T14:35:04;99186.22;;;14.16;30.37
72428;BME280;60419;48.880;18.036;2023-03-02T14:37:50;99184.66;;;14.06;30.36
72428;BME280;60419;48.880;18.036;2023-03-02T14:40:35;99187.97;;;14.21;30.01
72428;BME280;60419;48.880;18.036;2023-03-02T14:43:21;99182.09;;;14.01;29.87
72428;BME280;60419;48.880;18.036;2023-03-02T14:46:07;99189.88;;;14.20;30.29
72428;BME280;60419;48.880;18.036;2023-03-02T14:48:52;99175.94;;;14.60;29.33
72428;BME280;60419;48.880;18.036;2023-03-02T14:51:39;99180.56;;;14.89;28.88
72428;BME280;60419;48.880;18.036;2023-03-02T14:54:25;99151.28;;;14.65;29.37
72428;BME280;60419;48.880;18.036;2023-03-02T14:57:21;99172.50;;;15.02;28.55
72428;BME280;60419;48.880;18.036;2023-03-02T15:00:12;99171.84;;;14.45;29.48
72428;BME280;60419;48.880;18.036;2023-03-02T15:02:59;99170.78;;;14.67;29.42
72428;BME280;60419;48.880;18.036;2023-03-02T15:05:44;99159.13;;;14.67;28.90
72428;BME280;60419;48.880;18.036;2023-03-02T15:08:30;99163.00;;;14.87;28.43
72428;BME280;60419;48.880;18.036;2023-03-02T15:11:15;99154.56;;;15.01;28.21
72428;BME280;60419;48.880;18.036;2023-03-02T15:14:00;99157.44;;;14.83;28.22
72428;BME280;60419;48.880;18.036;2023-03-02T15:16:46;99156.69;;;15.16;27.71
72428;BME280;60419;48.880;18.036;2023-03-02T15:19:31;99163.97;;;15.45;27.24
72428;BME280;60419;48.880;18.036;2023-03-02T15:22:17;99155.47;;;15.47;26.88
72428;BME280;60419;48.880;18.036;2023-03-02T15:25:02;99152.66;;;14.80;27.88
72428;BME280;60419;48.880;18.036;2023-03-02T15:27:48;99155.56;;;15.17;26.75
72428;BME280;60419;48.880;18.036;2023-03-02T15:30:33;99157.31;;;15.88;26.06